Terminal Aerodrome Forecast
Issued by NWS Paducah, KY

Home | Current Version | Previous Version | Graphics & Text | Print | Product List | Glossary On
Versions: 1 2 3 4 5 6 7 8 9 10 11 12 13 14 15 16 17 18 19
000
FTUS43 KPAH 262037 AAA
TAFEVV
TAF AMD
KEVV 262037Z 2621/2718 17006KT P6SM -SHRA VCTS BKN080CB
     FM270000 17005KT P6SM BKN150
     FM271500 20010G17KT P6SM BKN150=

USA.gov is the U.S. government's official web portal to all federal, state and local government web resources and services.